PWSweather.com
Personal Weather Stations
Station Observations

LlefiĆ BadalonaES

Lat: 41.44, Lon: 2.2175

Elevation: 213.254

Station Type: oregon WMR918

http://www.estacionmeteorologicabadalonallefia.com

Latest ConditionsUpdated 7:23:45 PM GMT+01:01 Thursday, Oct 23, 2014
Currently Today's Max Today's Min Today's Average
Temperature 68.0°F20.0°C 73.4°F23.0°C 56.3°F13.5°C 64.2°F17.9°C
Dew Point 40.0°F4.4°C 52.4°F11.3°C 32.4°F0.2°C 40.4°F4.7°C
Winds Calm Calm 7.5 mph NW12.1 kmh NW - 4.2 mph 6.8 kmh
Wind Gusts -- 16.6 mph26.7 kmh - -
Humidity 36% 65% 24% 43%
Pressure 30.00 in1015.9 mb 30.18 in1022.0 mb 29.97 in1014.9 mb -
Hour Temp Dew Point Humidity Winds Wind Gusts Pressure Precip Precip Rate Daily Precip Total
07:23 PM 68.0°F20.0°C 40.0°F4.4°C 36% Calm Calm -- 30.00 in1015.9 mb 0.00 in0.0 mm 0.00 in/hr0.0 mm/hr 0.00 in0.0 mm
07:13 PM 68.0°F20.0°C 40.0°F4.4°C 36% Calm Calm -- 30.00 in1015.9 mb 0.00 in0.0 mm 0.00 in/hr0.0 mm/hr 0.00 in0.0 mm
07:03 PM 68.2°F20.1°C 39.5°F4.2°C 35% Calm Calm -- 30.00 in1015.9 mb 0.00 in0.0 mm 0.00 in/hr0.0 mm/hr 0.00 in0.0 mm
06:53 PM 68.4°F20.2°C 39.6°F4.2°C 35% Calm Calm -- 30.00 in1015.9 mb 0.00 in0.0 mm 0.00 in/hr0.0 mm/hr 0.00 in0.0 mm
06:43 PM 68.4°F20.2°C 39.6°F4.2°C 35% Calm Calm -- 30.00 in1015.9 mb 0.00 in0.0 mm 0.00 in/hr0.0 mm/hr 0.00 in0.0 mm
06:33 PM 68.4°F20.2°C 39.6°F4.2°C 35% 3.6 mph NE5.8 kmh NE 5.2 mph8.4 kmh 29.97 in1014.9 mb 0.00 in0.0 mm 0.00 in/hr0.0 mm/hr 0.00 in0.0 mm
06:23 PM 68.5°F20.3°C 39.8°F4.3°C 35% 1.2 mph NE1.9 kmh NE 4.1 mph6.6 kmh 29.97 in1014.9 mb 0.00 in0.0 mm 0.00 in/hr0.0 mm/hr 0.00 in0.0 mm
06:13 PM 68.5°F20.3°C 39.8°F4.3°C 35% 3.9 mph NE6.3 kmh NE 5.2 mph8.4 kmh 29.97 in1014.9 mb 0.00 in0.0 mm 0.00 in/hr0.0 mm/hr 0.00 in0.0 mm
06:03 PM 68.9°F20.5°C 39.4°F4.1°C 34% 3.0 mph NE4.8 kmh NE 6.4 mph10.3 kmh 29.97 in1014.9 mb 0.00 in0.0 mm 0.00 in/hr0.0 mm/hr 0.00 in0.0 mm
05:53 PM 69.1°F20.6°C 39.5°F4.2°C 34% 1.1 mph E1.8 kmh E -- 29.97 in1014.9 mb 0.00 in0.0 mm 0.00 in/hr0.0 mm/hr 0.00 in0.0 mm
05:43 PM 69.1°F20.6°C 39.5°F4.2°C 34% 1.1 mph E1.8 kmh E -- 29.97 in1014.9 mb 0.00 in0.0 mm 0.00 in/hr0.0 mm/hr 0.00 in0.0 mm
05:33 PM 68.9°F20.5°C 39.4°F4.1°C 34% 3.6 mph NE5.8 kmh NE 6.4 mph10.3 kmh 29.97 in1014.9 mb 0.00 in0.0 mm 0.00 in/hr0.0 mm/hr 0.00 in0.0 mm
05:23 PM 68.7°F20.4°C 39.2°F4.0°C 34% 4.3 mph NE6.9 kmh NE 7.6 mph12.2 kmh 29.97 in1014.9 mb 0.00 in0.0 mm 0.00 in/hr0.0 mm/hr 0.00 in0.0 mm
05:13 PM 68.7°F20.4°C 39.9°F4.4°C 35% 5.9 mph NE9.5 kmh NE 10.7 mph17.2 kmh 29.97 in1014.9 mb 0.00 in0.0 mm 0.00 in/hr0.0 mm/hr 0.00 in0.0 mm
05:03 PM 68.9°F20.5°C 42.2°F5.7°C 38% 4.2 mph NE6.8 kmh NE 9.9 mph15.9 kmh 29.97 in1014.9 mb 0.00 in0.0 mm 0.00 in/hr0.0 mm/hr 0.00 in0.0 mm
04:53 PM 69.0°F20.6°C 42.4°F5.8°C 38% 6.5 mph ENE10.5 kmh ENE 10.7 mph17.2 kmh 29.97 in1014.9 mb 0.00 in0.0 mm 0.00 in/hr0.0 mm/hr 0.00 in0.0 mm
04:43 PM 69.3°F20.7°C 42.6°F5.9°C 38% 2.9 mph E4.7 kmh E 6.4 mph10.3 kmh 29.97 in1014.9 mb 0.00 in0.0 mm 0.00 in/hr0.0 mm/hr 0.00 in0.0 mm
04:33 PM 69.3°F20.7°C 42.6°F5.9°C 38% 5.4 mph ENE8.7 kmh ENE 8.7 mph14.0 kmh 30.00 in1015.9 mb 0.00 in0.0 mm 0.00 in/hr0.0 mm/hr 0.00 in0.0 mm
04:23 PM 69.8°F21.0°C 40.9°F4.9°C 35% 4.5 mph NE7.2 kmh NE 8.1 mph13.0 kmh 30.00 in1015.9 mb 0.00 in0.0 mm 0.00 in/hr0.0 mm/hr 0.00 in0.0 mm
04:13 PM 69.8°F21.0°C 40.2°F4.6°C 34% 5.8 mph ENE9.3 kmh ENE 10.5 mph16.9 kmh 30.00 in1015.9 mb 0.00 in0.0 mm 0.00 in/hr0.0 mm/hr 0.00 in0.0 mm
04:03 PM 70.3°F21.3°C 40.6°F4.8°C 34% 4.1 mph ENE6.6 kmh ENE 6.4 mph10.3 kmh 30.00 in1015.9 mb 0.00 in0.0 mm 0.00 in/hr0.0 mm/hr 0.00 in0.0 mm
03:53 PM 70.5°F21.4°C 39.2°F4.0°C 32% 4.1 mph SSE6.6 kmh SSE 6.4 mph10.3 kmh 30.00 in1015.9 mb 0.00 in0.0 mm 0.00 in/hr0.0 mm/hr 0.00 in0.0 mm
03:43 PM 70.2°F21.2°C 40.5°F4.7°C 34% 3.3 mph SE5.3 kmh SE 6.4 mph10.3 kmh 30.00 in1015.9 mb 0.00 in0.0 mm 0.00 in/hr0.0 mm/hr 0.00 in0.0 mm
03:33 PM 70.3°F21.3°C 39.1°F3.9°C 32% 3.4 mph E5.5 kmh E 8.1 mph13.0 kmh 30.00 in1015.9 mb 0.00 in0.0 mm 0.00 in/hr0.0 mm/hr 0.00 in0.0 mm
03:23 PM 70.4°F21.3°C 39.1°F3.9°C 32% 4.0 mph ESE6.4 kmh ESE 7.0 mph11.3 kmh 30.00 in1015.9 mb 0.00 in0.0 mm 0.00 in/hr0.0 mm/hr 0.00 in0.0 mm
03:13 PM 70.0°F21.1°C 40.3°F4.6°C 34% 5.4 mph ESE8.7 kmh ESE 7.6 mph12.2 kmh 30.00 in1015.9 mb 0.00 in0.0 mm 0.00 in/hr0.0 mm/hr 0.00 in0.0 mm
02:53 PM 70.2°F21.2°C 40.5°F4.7°C 34% 6.6 mph SE10.6 kmh SE 9.9 mph15.9 kmh 30.00 in1015.9 mb 0.00 in0.0 mm 0.00 in/hr0.0 mm/hr 0.00 in0.0 mm
02:43 PM 70.2°F21.2°C 40.5°F4.7°C 34% 2.9 mph E4.7 kmh E 6.4 mph10.3 kmh 30.00 in1015.9 mb 0.00 in0.0 mm 0.00 in/hr0.0 mm/hr 0.00 in0.0 mm
02:33 PM 69.5°F20.8°C 39.9°F4.4°C 34% 5.4 mph E8.7 kmh E 8.1 mph13.0 kmh 30.00 in1015.9 mb 0.00 in0.0 mm 0.00 in/hr0.0 mm/hr 0.00 in0.0 mm
02:23 PM 69.3°F20.7°C 40.4°F4.7°C 35% 7.2 mph SE11.6 kmh SE 8.1 mph13.0 kmh 30.00 in1015.9 mb 0.00 in0.0 mm 0.00 in/hr0.0 mm/hr 0.00 in0.0 mm
02:13 PM 69.6°F20.9°C 42.9°F6.1°C 38% 4.5 mph SE7.2 kmh SE 12.5 mph20.1 kmh 30.00 in1015.9 mb 0.00 in0.0 mm 0.00 in/hr0.0 mm/hr 0.00 in0.0 mm
02:03 PM 69.4°F20.8°C 41.3°F5.2°C 36% 5.1 mph ESE8.2 kmh ESE 8.1 mph13.0 kmh 30.03 in1016.9 mb 0.00 in0.0 mm 0.00 in/hr0.0 mm/hr 0.00 in0.0 mm
01:53 PM 69.0°F20.6°C 40.2°F4.6°C 35% 6.0 mph SE9.7 kmh SE 10.5 mph16.9 kmh 30.03 in1016.9 mb 0.00 in0.0 mm 0.00 in/hr0.0 mm/hr 0.00 in0.0 mm
01:43 PM 69.7°F20.9°C 40.8°F4.9°C 35% 3.8 mph SSE6.1 kmh SSE 9.9 mph15.9 kmh 30.03 in1016.9 mb 0.00 in0.0 mm 0.00 in/hr0.0 mm/hr 0.00 in0.0 mm
01:33 PM 69.6°F20.9°C 41.5°F5.3°C 36% 3.9 mph SE6.3 kmh SE 7.0 mph11.3 kmh 30.03 in1016.9 mb 0.00 in0.0 mm 0.00 in/hr0.0 mm/hr 0.00 in0.0 mm
01:23 PM 69.3°F20.7°C 40.4°F4.7°C 35% 6.1 mph SE9.8 kmh SE 10.7 mph17.2 kmh 30.03 in1016.9 mb 0.00 in0.0 mm 0.00 in/hr0.0 mm/hr 0.00 in0.0 mm
01:13 PM 68.8°F20.4°C 42.1°F5.6°C 38% 5.3 mph SE8.5 kmh SE 8.1 mph13.0 kmh 30.03 in1016.9 mb 0.00 in0.0 mm 0.00 in/hr0.0 mm/hr 0.00 in0.0 mm
01:03 PM 69.2°F20.7°C 40.4°F4.7°C 35% 6.4 mph SE10.3 kmh SE 10.7 mph17.2 kmh 30.03 in1016.9 mb 0.00 in0.0 mm 0.00 in/hr0.0 mm/hr 0.00 in0.0 mm
12:53 PM 69.4°F20.8°C 39.8°F4.3°C 34% 5.3 mph S8.5 kmh S 8.1 mph13.0 kmh 30.03 in1016.9 mb 0.00 in0.0 mm 0.00 in/hr0.0 mm/hr 0.00 in0.0 mm
12:43 PM 70.4°F21.3°C 39.9°F4.4°C 33% 6.6 mph SSE10.6 kmh SSE 12.5 mph20.1 kmh 30.06 in1017.9 mb 0.00 in0.0 mm 0.00 in/hr0.0 mm/hr 0.00 in0.0 mm
12:33 PM 73.4°F23.0°C 34.4°F1.3°C 24% 2.9 mph E4.7 kmh E 9.9 mph15.9 kmh 30.06 in1017.9 mb 0.00 in0.0 mm 0.00 in/hr0.0 mm/hr 0.00 in0.0 mm
12:23 PM 72.9°F22.7°C 33.9°F1.1°C 24% Calm Calm 3.5 mph5.6 kmh 30.06 in1017.9 mb 0.00 in0.0 mm 0.00 in/hr0.0 mm/hr 0.00 in0.0 mm
12:13 PM 72.7°F22.6°C 33.8°F1.0°C 24% Calm Calm 4.6 mph7.4 kmh 30.06 in1017.9 mb 0.00 in0.0 mm 0.00 in/hr0.0 mm/hr 0.00 in0.0 mm
12:03 PM 71.4°F21.9°C 33.8°F1.0°C 25% 1.5 mph NW2.4 kmh NW -- 30.09 in1019.0 mb 0.00 in0.0 mm 0.00 in/hr0.0 mm/hr 0.00 in0.0 mm
11:53 AM 70.4°F21.3°C 32.9°F0.5°C 25% Calm Calm 2.9 mph4.7 kmh 30.09 in1019.0 mb 0.00 in0.0 mm 0.00 in/hr0.0 mm/hr 0.00 in0.0 mm
11:43 AM 69.8°F21.0°C 32.4°F0.2°C 25% 3.7 mph SSW6.0 kmh SSW 7.6 mph12.2 kmh 30.09 in1019.0 mb 0.00 in0.0 mm 0.00 in/hr0.0 mm/hr 0.00 in0.0 mm
11:33 AM 68.7°F20.4°C 36.0°F2.2°C 30% 1.0 mph NW1.6 kmh NW 5.2 mph8.4 kmh 30.09 in1019.0 mb 0.00 in0.0 mm 0.00 in/hr0.0 mm/hr 0.00 in0.0 mm
11:23 AM 68.2°F20.1°C 35.5°F1.9°C 30% 4.0 mph SW6.4 kmh SW 8.1 mph13.0 kmh 30.09 in1019.0 mb 0.00 in0.0 mm 0.00 in/hr0.0 mm/hr 0.00 in0.0 mm
11:13 AM 67.5°F19.7°C 34.9°F1.6°C 30% 3.7 mph W6.0 kmh W 6.4 mph10.3 kmh 30.09 in1019.0 mb 0.00 in0.0 mm 0.00 in/hr0.0 mm/hr 0.00 in0.0 mm
11:03 AM 67.1°F19.5°C 34.6°F1.4°C 30% 3.3 mph NW5.3 kmh NW 5.2 mph8.4 kmh 30.09 in1019.0 mb 0.00 in0.0 mm 0.00 in/hr0.0 mm/hr 0.00 in0.0 mm
10:53 AM 66.5°F19.2°C 34.1°F1.2°C 30% 2.8 mph W4.5 kmh W 10.5 mph16.9 kmh 30.09 in1019.0 mb 0.00 in0.0 mm 0.00 in/hr0.0 mm/hr 0.00 in0.0 mm
10:43 AM 66.0°F18.9°C 36.8°F2.7°C 34% 3.4 mph WSW5.5 kmh WSW 4.6 mph7.4 kmh 30.09 in1019.0 mb 0.00 in0.0 mm 0.00 in/hr0.0 mm/hr 0.00 in0.0 mm
10:33 AM 65.5°F18.6°C 36.4°F2.4°C 34% 3.0 mph WNW4.8 kmh WNW 4.6 mph7.4 kmh 30.12 in1020.0 mb 0.00 in0.0 mm 0.00 in/hr0.0 mm/hr 0.00 in0.0 mm
10:23 AM 64.6°F18.1°C 35.6°F2.0°C 34% 5.3 mph NW8.5 kmh NW 8.1 mph13.0 kmh 30.12 in1020.0 mb 0.00 in0.0 mm 0.00 in/hr0.0 mm/hr 0.00 in0.0 mm
10:13 AM 63.9°F17.7°C 35.0°F1.7°C 34% 0.7 mph NW1.1 kmh NW 5.8 mph9.3 kmh 30.12 in1020.0 mb 0.00 in0.0 mm 0.00 in/hr0.0 mm/hr 0.00 in0.0 mm
10:03 AM 63.5°F17.5°C 34.6°F1.4°C 34% 5.9 mph NW9.5 kmh NW 10.7 mph17.2 kmh 30.12 in1020.0 mb 0.00 in0.0 mm 0.00 in/hr0.0 mm/hr 0.00 in0.0 mm
09:53 AM 63.1°F17.3°C 34.3°F1.3°C 34% 5.1 mph NW8.2 kmh NW 10.5 mph16.9 kmh 30.12 in1020.0 mb 0.00 in0.0 mm 0.00 in/hr0.0 mm/hr 0.00 in0.0 mm
09:43 AM 63.1°F17.3°C 35.0°F1.7°C 35% 3.7 mph NW6.0 kmh NW 7.6 mph12.2 kmh 30.12 in1020.0 mb 0.00 in0.0 mm 0.00 in/hr0.0 mm/hr 0.00 in0.0 mm
09:33 AM 62.6°F17.0°C 33.8°F1.0°C 34% 4.0 mph WNW6.4 kmh WNW 9.3 mph15.0 kmh 30.12 in1020.0 mb 0.00 in0.0 mm 0.00 in/hr0.0 mm/hr 0.00 in0.0 mm
09:13 AM 61.6°F16.4°C 33.6°F0.9°C 35% 2.4 mph S3.9 kmh S 5.2 mph8.4 kmh 30.15 in1021.0 mb 0.00 in0.0 mm 0.00 in/hr0.0 mm/hr 0.00 in0.0 mm
09:03 AM 61.0°F16.1°C 33.8°F1.0°C 36% 4.1 mph SSW6.6 kmh SSW 5.2 mph8.4 kmh 30.12 in1020.0 mb 0.00 in0.0 mm 0.00 in/hr0.0 mm/hr 0.00 in0.0 mm
08:53 AM 60.0°F15.6°C 35.6°F2.0°C 40% 3.3 mph SW5.3 kmh SW 5.2 mph8.4 kmh 30.12 in1020.0 mb 0.00 in0.0 mm 0.00 in/hr0.0 mm/hr 0.00 in0.0 mm
08:43 AM 59.2°F15.1°C 36.7°F2.6°C 43% 4.2 mph NW6.8 kmh NW 7.0 mph11.3 kmh 30.12 in1020.0 mb 0.00 in0.0 mm 0.00 in/hr0.0 mm/hr 0.00 in0.0 mm
08:33 AM 58.8°F14.9°C 35.2°F1.8°C 41% 6.1 mph NW9.8 kmh NW 9.9 mph15.9 kmh 30.12 in1020.0 mb 0.00 in0.0 mm 0.00 in/hr0.0 mm/hr 0.00 in0.0 mm
08:23 AM 58.6°F14.8°C 36.8°F2.7°C 44% 4.7 mph WNW7.6 kmh WNW 9.9 mph15.9 kmh 30.12 in1020.0 mb 0.00 in0.0 mm 0.00 in/hr0.0 mm/hr 0.00 in0.0 mm
08:13 AM 58.1°F14.5°C 38.0°F3.3°C 47% 3.8 mph NW6.1 kmh NW 5.2 mph8.4 kmh 30.12 in1020.0 mb 0.00 in0.0 mm 0.00 in/hr0.0 mm/hr 0.00 in0.0 mm
08:03 AM 57.6°F14.2°C 38.5°F3.6°C 49% 3.7 mph NW6.0 kmh NW 4.1 mph6.6 kmh 30.12 in1020.0 mb 0.00 in0.0 mm 0.00 in/hr0.0 mm/hr 0.00 in0.0 mm
07:53 AM 57.4°F14.1°C 38.9°F3.8°C 50% 4.8 mph NW7.7 kmh NW 7.6 mph12.2 kmh 30.12 in1020.0 mb 0.00 in0.0 mm 0.00 in/hr0.0 mm/hr 0.00 in0.0 mm
07:43 AM 57.2°F14.0°C 39.7°F4.3°C 52% 5.4 mph NNW8.7 kmh NNW 8.1 mph13.0 kmh 30.12 in1020.0 mb 0.00 in0.0 mm 0.00 in/hr0.0 mm/hr 0.00 in0.0 mm
07:33 AM 56.7°F13.7°C 41.1°F5.1°C 56% Calm Calm 5.2 mph8.4 kmh 30.12 in1020.0 mb 0.00 in0.0 mm 0.00 in/hr0.0 mm/hr 0.00 in0.0 mm
07:23 AM 56.3°F13.5°C 41.7°F5.4°C 58% 5.2 mph NNW8.4 kmh NNW 8.7 mph14.0 kmh 30.12 in1020.0 mb 0.00 in0.0 mm 0.00 in/hr0.0 mm/hr 0.00 in0.0 mm
07:13 AM 56.5°F13.6°C 42.8°F6.0°C 60% 5.5 mph NW8.9 kmh NW 10.7 mph17.2 kmh 30.12 in1020.0 mb 0.00 in0.0 mm 0.00 in/hr0.0 mm/hr 0.00 in0.0 mm
07:03 AM 56.8°F13.8°C 43.1°F6.2°C 60% 4.6 mph NNW7.4 kmh NNW 7.6 mph12.2 kmh 30.15 in1021.0 mb 0.00 in0.0 mm 0.00 in/hr0.0 mm/hr 0.00 in0.0 mm
06:53 AM 57.1°F13.9°C 43.3°F6.3°C 60% 6.4 mph NW10.3 kmh NW 12.5 mph20.1 kmh 30.15 in1021.0 mb 0.00 in0.0 mm 0.00 in/hr0.0 mm/hr 0.00 in0.0 mm
06:43 AM 57.4°F14.1°C 40.9°F4.9°C 54% 5.1 mph NW8.2 kmh NW 16.6 mph26.7 kmh 30.15 in1021.0 mb 0.00 in0.0 mm 0.00 in/hr0.0 mm/hr 0.00 in0.0 mm
06:33 AM 57.6°F14.2°C 39.6°F4.2°C 51% 6.5 mph NW10.5 kmh NW 10.5 mph16.9 kmh 30.12 in1020.0 mb 0.00 in0.0 mm 0.00 in/hr0.0 mm/hr 0.00 in0.0 mm
06:23 AM 57.9°F14.4°C 40.4°F4.7°C 52% 4.7 mph NW7.6 kmh NW 12.5 mph20.1 kmh 30.12 in1020.0 mb 0.00 in0.0 mm 0.00 in/hr0.0 mm/hr 0.00 in0.0 mm
06:13 AM 57.9°F14.4°C 40.4°F4.7°C 52% 5.5 mph NW8.9 kmh NW 9.9 mph15.9 kmh 30.12 in1020.0 mb 0.00 in0.0 mm 0.00 in/hr0.0 mm/hr 0.00 in0.0 mm
06:03 AM 57.9°F14.4°C 40.4°F4.7°C 52% 4.9 mph NW7.9 kmh NW 8.1 mph13.0 kmh 30.12 in1020.0 mb 0.00 in0.0 mm 0.00 in/hr0.0 mm/hr 0.00 in0.0 mm
05:53 AM 58.1°F14.5°C 40.6°F4.8°C 52% 2.3 mph W3.7 kmh W 3.5 mph5.6 kmh 30.12 in1020.0 mb 0.00 in0.0 mm 0.00 in/hr0.0 mm/hr 0.00 in0.0 mm
05:43 AM 58.1°F14.5°C 40.6°F4.8°C 52% 6.4 mph WNW10.3 kmh WNW 10.5 mph16.9 kmh 30.15 in1021.0 mb 0.00 in0.0 mm 0.00 in/hr0.0 mm/hr 0.00 in0.0 mm
05:33 AM 58.3°F14.6°C 40.7°F4.8°C 52% 4.6 mph NW7.4 kmh NW 9.3 mph15.0 kmh 30.15 in1021.0 mb 0.00 in0.0 mm 0.00 in/hr0.0 mm/hr 0.00 in0.0 mm
05:23 AM 58.5°F14.7°C 40.4°F4.7°C 51% 6.8 mph NW10.9 kmh NW 10.7 mph17.2 kmh 30.15 in1021.0 mb 0.00 in0.0 mm 0.00 in/hr0.0 mm/hr 0.00 in0.0 mm
05:13 AM 58.6°F14.8°C 41.1°F5.1°C 52% 6.1 mph NW9.8 kmh NW 11.3 mph18.2 kmh 30.15 in1021.0 mb 0.00 in0.0 mm 0.00 in/hr0.0 mm/hr 0.00 in0.0 mm
05:03 AM 58.5°F14.7°C 41.4°F5.2°C 53% 5.1 mph NW8.2 kmh NW 9.9 mph15.9 kmh 30.15 in1021.0 mb 0.00 in0.0 mm 0.00 in/hr0.0 mm/hr 0.00 in0.0 mm
04:53 AM 58.5°F14.7°C 41.4°F5.2°C 53% 4.6 mph NW7.4 kmh NW 11.3 mph18.2 kmh 30.15 in1021.0 mb 0.00 in0.0 mm 0.00 in/hr0.0 mm/hr 0.00 in0.0 mm
04:43 AM 58.6°F14.8°C 41.1°F5.1°C 52% 5.1 mph NW8.2 kmh NW 8.1 mph13.0 kmh 30.15 in1021.0 mb 0.00 in0.0 mm 0.00 in/hr0.0 mm/hr 0.00 in0.0 mm
04:33 AM 59.0°F15.0°C 40.9°F4.9°C 51% 5.8 mph NW9.3 kmh NW 10.7 mph17.2 kmh 30.15 in1021.0 mb 0.00 in0.0 mm 0.00 in/hr0.0 mm/hr 0.00 in0.0 mm
04:23 AM 59.2°F15.1°C 41.1°F5.1°C 51% 6.9 mph NW11.1 kmh NW 12.5 mph20.1 kmh 30.15 in1021.0 mb 0.00 in0.0 mm 0.00 in/hr0.0 mm/hr 0.00 in0.0 mm
04:13 AM 59.2°F15.1°C 41.1°F5.1°C 51% 6.7 mph NW10.8 kmh NW 10.5 mph16.9 kmh 30.15 in1021.0 mb 0.00 in0.0 mm 0.00 in/hr0.0 mm/hr 0.00 in0.0 mm
04:03 AM 59.5°F15.3°C 41.4°F5.2°C 51% 5.4 mph NW8.7 kmh NW 10.5 mph16.9 kmh 30.15 in1021.0 mb 0.00 in0.0 mm 0.00 in/hr0.0 mm/hr 0.00 in0.0 mm
03:53 AM 59.9°F15.5°C 41.7°F5.4°C 51% 5.4 mph NW8.7 kmh NW 8.1 mph13.0 kmh 30.15 in1021.0 mb 0.00 in0.0 mm 0.00 in/hr0.0 mm/hr 0.00 in0.0 mm
03:43 AM 60.1°F15.6°C 42.4°F5.8°C 52% 5.6 mph NW9.0 kmh NW 9.9 mph15.9 kmh 30.15 in1021.0 mb 0.00 in0.0 mm 0.00 in/hr0.0 mm/hr 0.00 in0.0 mm
03:33 AM 59.9°F15.5°C 42.7°F5.9°C 53% 5.2 mph NW8.4 kmh NW 8.1 mph13.0 kmh 30.15 in1021.0 mb 0.00 in0.0 mm 0.00 in/hr0.0 mm/hr 0.00 in0.0 mm
03:23 AM 59.7°F15.4°C 42.1°F5.6°C 52% 4.6 mph NW7.4 kmh NW 7.6 mph12.2 kmh 30.15 in1021.0 mb 0.00 in0.0 mm 0.00 in/hr0.0 mm/hr 0.00 in0.0 mm
03:13 AM 59.7°F15.4°C 42.1°F5.6°C 52% 4.6 mph NW7.4 kmh NW 8.1 mph13.0 kmh 30.18 in1022.0 mb 0.00 in0.0 mm 0.00 in/hr0.0 mm/hr 0.00 in0.0 mm
03:03 AM 59.9°F15.5°C 42.3°F5.7°C 52% 3.7 mph NW6.0 kmh NW 6.4 mph10.3 kmh 30.18 in1022.0 mb 0.00 in0.0 mm 0.00 in/hr0.0 mm/hr 0.00 in0.0 mm
02:53 AM 60.3°F15.7°C 42.6°F5.9°C 52% 4.9 mph NW7.9 kmh NW 8.1 mph13.0 kmh 30.18 in1022.0 mb 0.00 in0.0 mm 0.00 in/hr0.0 mm/hr 0.00 in0.0 mm
02:43 AM 60.4°F15.8°C 42.7°F5.9°C 52% 7.0 mph NW11.3 kmh NW 10.7 mph17.2 kmh 30.18 in1022.0 mb 0.00 in0.0 mm 0.00 in/hr0.0 mm/hr 0.00 in0.0 mm
02:33 AM 60.6°F15.9°C 43.4°F6.3°C 53% 3.3 mph NW5.3 kmh NW 5.2 mph8.4 kmh 30.18 in1022.0 mb 0.00 in0.0 mm 0.00 in/hr0.0 mm/hr 0.00 in0.0 mm
02:23 AM 60.6°F15.9°C 43.9°F6.6°C 54% 5.5 mph NW8.9 kmh NW 7.6 mph12.2 kmh 30.18 in1022.0 mb 0.00 in0.0 mm 0.00 in/hr0.0 mm/hr 0.00 in0.0 mm
02:13 AM 60.8°F16.0°C 45.0°F7.2°C 56% 2.9 mph NW4.7 kmh NW 7.0 mph11.3 kmh 30.18 in1022.0 mb 0.00 in0.0 mm 0.00 in/hr0.0 mm/hr 0.00 in0.0 mm
02:03 AM 60.8°F16.0°C 45.5°F7.5°C 57% 5.4 mph NW8.7 kmh NW 9.9 mph15.9 kmh 30.18 in1022.0 mb 0.00 in0.0 mm 0.00 in/hr0.0 mm/hr 0.00 in0.0 mm
01:53 AM 60.8°F16.0°C 46.4°F8.0°C 59% 6.3 mph NW10.1 kmh NW 11.3 mph18.2 kmh 30.18 in1022.0 mb 0.00 in0.0 mm 0.00 in/hr0.0 mm/hr 0.00 in0.0 mm
01:43 AM 60.8°F16.0°C 46.8°F8.2°C 60% 5.1 mph NW8.2 kmh NW 8.1 mph13.0 kmh 30.18 in1022.0 mb 0.00 in0.0 mm 0.00 in/hr0.0 mm/hr 0.00 in0.0 mm
01:33 AM 61.0°F16.1°C 47.4°F8.6°C 61% 1.4 mph NW2.3 kmh NW 7.6 mph12.2 kmh 30.18 in1022.0 mb 0.00 in0.0 mm 0.00 in/hr0.0 mm/hr 0.00 in0.0 mm
01:23 AM 61.2°F16.2°C 48.0°F8.9°C 62% 4.3 mph W6.9 kmh W 8.1 mph13.0 kmh 30.18 in1022.0 mb 0.00 in0.0 mm 0.00 in/hr0.0 mm/hr 0.00 in0.0 mm
01:13 AM 61.5°F16.4°C 48.4°F9.1°C 62% 7.5 mph NW12.1 kmh NW 10.5 mph16.9 kmh 30.18 in1022.0 mb 0.00 in0.0 mm 0.00 in/hr0.0 mm/hr 0.00 in0.0 mm
01:03 AM 62.6°F17.0°C 50.7°F10.4°C 65% 5.3 mph NW8.5 kmh NW 10.7 mph17.2 kmh 30.18 in1022.0 mb 0.00 in0.0 mm 0.00 in/hr0.0 mm/hr 0.00 in0.0 mm
12:53 AM 62.6°F17.0°C 49.8°F9.9°C 63% 3.4 mph NW5.5 kmh NW 6.4 mph10.3 kmh 30.18 in1022.0 mb 0.00 in0.0 mm 0.00 in/hr0.0 mm/hr 0.00 in0.0 mm
12:43 AM 63.1°F17.3°C 49.9°F9.9°C 62% 2.7 mph NW4.3 kmh NW 8.1 mph13.0 kmh 30.18 in1022.0 mb 0.00 in0.0 mm 0.00 in/hr0.0 mm/hr 0.00 in0.0 mm
12:33 AM 63.1°F17.3°C 49.0°F9.4°C 60% 5.6 mph NW9.0 kmh NW 10.5 mph16.9 kmh 30.18 in1022.0 mb 0.00 in0.0 mm 0.00 in/hr0.0 mm/hr 0.00 in0.0 mm
12:23 AM 63.5°F17.5°C 50.2°F10.1°C 62% 1.6 mph W2.6 kmh W 6.4 mph10.3 kmh 30.18 in1022.0 mb 0.00 in0.0 mm 0.00 in/hr0.0 mm/hr 0.00 in0.0 mm
12:13 AM 64.4°F18.0°C 52.4°F11.3°C 65% 4.3 mph W6.9 kmh W 5.2 mph8.4 kmh 30.18 in1022.0 mb 0.00 in0.0 mm 0.00 in/hr0.0 mm/hr 0.00 in0.0 mm
12:03 AM 63.3°F17.4°C 49.6°F9.8°C 61% 4.8 mph WNW7.7 kmh WNW 10.7 mph17.2 kmh 30.18 in1022.0 mb 0.00 in0.0 mm 0.00 in/hr0.0 mm/hr 0.00 in0.0 mm